createdAt,value
2018-02-13T00:00:28.379Z,977.80
2018-02-13T00:01:28.388Z,977.79
2018-02-13T00:02:28.206Z,977.82
2018-02-13T00:03:28.193Z,977.78
2018-02-13T00:04:28.089Z,977.78
2018-02-13T00:05:28.013Z,977.79
2018-02-13T00:06:27.868Z,977.78
2018-02-13T00:07:27.810Z,977.83
2018-02-13T00:08:27.695Z,977.83
2018-02-13T00:09:27.719Z,977.86
2018-02-13T00:10:27.522Z,977.82
2018-02-13T00:11:27.530Z,977.85
2018-02-13T00:12:27.354Z,977.86
2018-02-13T00:13:27.338Z,977.87
2018-02-13T00:14:27.181Z,977.82
2018-02-13T00:15:27.143Z,977.85
2018-02-13T00:16:27.010Z,977.88
2018-02-13T00:17:26.953Z,977.86
2018-02-13T00:18:26.840Z,977.87
2018-02-13T00:19:26.866Z,977.86
2018-02-13T00:20:26.666Z,977.81
2018-02-13T00:21:26.674Z,977.82
2018-02-13T00:22:26.501Z,977.84
2018-02-13T00:23:26.483Z,977.82
2018-02-13T00:24:26.328Z,977.84
2018-02-13T00:25:26.290Z,977.88
2018-02-13T00:26:26.158Z,977.86
2018-02-13T00:27:26.096Z,977.82
2018-02-13T00:28:25.980Z,977.88
2018-02-13T00:29:26.010Z,977.85
2018-02-13T00:30:25.815Z,977.86
2018-02-13T00:31:25.818Z,977.86
2018-02-13T00:32:25.648Z,977.84
2018-02-13T00:33:25.626Z,977.85
2018-02-13T00:34:25.503Z,977.88
2018-02-13T00:35:25.434Z,977.85
2018-02-13T00:36:25.302Z,977.84
2018-02-13T00:37:25.242Z,977.88
2018-02-13T00:38:25.132Z,977.82
2018-02-13T00:39:25.154Z,977.89
2018-02-13T00:40:24.959Z,977.85
2018-02-13T00:41:24.958Z,977.86
2018-02-13T00:42:24.787Z,977.87
2018-02-13T00:43:24.780Z,977.85
2018-02-13T00:44:24.622Z,977.85
2018-02-13T00:45:25.617Z,977.87
2018-02-13T00:46:24.449Z,977.86
2018-02-13T00:47:24.385Z,977.84
2018-02-13T00:48:24.276Z,977.83
2018-02-13T00:49:24.293Z,977.84
2018-02-13T00:50:24.106Z,977.87
2018-02-13T00:51:24.109Z,977.86
2018-02-13T00:52:23.934Z,977.83
2018-02-13T00:53:23.916Z,977.81
2018-02-13T00:54:23.762Z,977.86
2018-02-13T00:55:23.732Z,977.83
2018-02-13T00:56:23.593Z,977.86
2018-02-13T00:57:23.530Z,977.85
2018-02-13T00:58:23.423Z,977.83
2018-02-13T00:59:23.438Z,977.82
2018-02-13T01:00:23.271Z,977.87
2018-02-13T01:01:23.344Z,977.85
2018-02-13T01:02:23.088Z,977.82
2018-02-13T01:03:23.063Z,977.80
2018-02-13T01:04:22.905Z,977.84
2018-02-13T01:05:23.979Z,977.82
2018-02-13T01:06:22.759Z,977.78
2018-02-13T01:07:22.656Z,977.85
2018-02-13T01:08:22.562Z,977.85
2018-02-13T01:09:22.588Z,977.82
2018-02-13T01:10:22.393Z,977.83
2018-02-13T01:11:22.394Z,977.87
2018-02-13T01:12:22.220Z,977.87
2018-02-13T01:13:22.201Z,977.87
2018-02-13T01:14:22.050Z,977.87
2018-02-13T01:15:22.011Z,977.82
2018-02-13T01:16:21.877Z,977.82
2018-02-13T01:17:21.821Z,977.80
2018-02-13T01:18:21.709Z,977.82
2018-02-13T01:19:21.733Z,977.80
2018-02-13T01:20:21.535Z,977.82
2018-02-13T01:21:21.567Z,977.84
2018-02-13T01:22:21.368Z,977.81
2018-02-13T01:23:21.347Z,977.82
2018-02-13T01:24:21.193Z,977.81
2018-02-13T01:25:21.159Z,977.79
2018-02-13T01:26:21.018Z,977.76
2018-02-13T01:27:20.966Z,977.80
2018-02-13T01:28:20.847Z,977.79
2018-02-13T01:29:20.767Z,977.78
2018-02-13T01:30:20.780Z,977.73
2018-02-13T01:31:20.610Z,977.73
2018-02-13T01:32:21.616Z,977.75
2018-02-13T01:33:20.419Z,977.74
2018-02-13T01:34:20.395Z,977.74
2018-02-13T01:35:20.263Z,977.75
2018-02-13T01:36:20.214Z,977.74
2018-02-13T01:37:20.079Z,977.74
2018-02-13T01:38:20.011Z,977.74
2018-02-13T01:39:19.908Z,977.68
2018-02-13T01:40:19.924Z,977.74
2018-02-13T01:41:19.735Z,977.71
2018-02-13T01:42:19.730Z,977.74
2018-02-13T01:43:19.560Z,977.72
2018-02-13T01:44:19.538Z,977.75
2018-02-13T01:45:19.388Z,977.73
2018-02-13T01:46:19.350Z,977.71
2018-02-13T01:47:19.219Z,977.75
2018-02-13T01:48:19.823Z,977.76
2018-02-13T01:49:19.050Z,977.73
2018-02-13T01:50:19.068Z,977.74
2018-02-13T01:51:18.874Z,977.71
2018-02-13T01:52:18.875Z,977.76
2018-02-13T01:53:18.701Z,977.73
2018-02-13T01:54:18.623Z,977.75
2018-02-13T01:55:18.529Z,977.75
2018-02-13T01:56:18.492Z,977.74
2018-02-13T01:57:18.355Z,977.69
2018-02-13T01:58:18.298Z,977.73
2018-02-13T01:59:18.185Z,977.68
2018-02-13T02:00:18.211Z,977.75
2018-02-13T02:01:18.009Z,977.74
2018-02-13T02:02:17.986Z,977.73
2018-02-13T02:03:17.841Z,977.72
2018-02-13T02:04:17.827Z,977.74
2018-02-13T02:05:17.671Z,977.73
2018-02-13T02:06:17.635Z,977.72
2018-02-13T02:07:17.497Z,977.72
2018-02-13T02:08:17.444Z,977.73
2018-02-13T02:09:17.327Z,977.72
2018-02-13T02:10:17.357Z,977.72
2018-02-13T02:11:17.153Z,977.73
2018-02-13T02:12:17.165Z,977.71
2018-02-13T02:13:16.983Z,977.72
2018-02-13T02:14:16.973Z,977.69
2018-02-13T02:15:16.810Z,977.75
2018-02-13T02:16:16.781Z,977.74
2018-02-13T02:17:16.639Z,977.70
2018-02-13T02:18:16.559Z,977.73
2018-02-13T02:19:16.467Z,977.71
2018-02-13T02:20:16.395Z,977.73
2018-02-13T02:21:16.294Z,977.72
2018-02-13T02:22:16.306Z,977.69
2018-02-13T02:23:16.123Z,977.71
2018-02-13T02:24:16.115Z,977.74
2018-02-13T02:25:15.950Z,977.69
2018-02-13T02:26:15.923Z,977.68
2018-02-13T02:27:15.781Z,977.69
2018-02-13T02:28:15.732Z,977.67
2018-02-13T02:29:15.613Z,977.64
2018-02-13T02:30:15.545Z,977.65
2018-02-13T02:31:15.435Z,977.67
2018-02-13T02:32:15.451Z,977.62
2018-02-13T02:33:15.264Z,977.65
2018-02-13T02:34:15.260Z,977.65
2018-02-13T02:35:15.095Z,977.62
2018-02-13T02:36:15.071Z,977.64
2018-02-13T02:37:14.917Z,977.63
2018-02-13T02:38:14.876Z,977.61
2018-02-13T02:39:14.748Z,977.62
2018-02-13T02:40:14.688Z,977.60
2018-02-13T02:41:14.576Z,977.61
2018-02-13T02:42:14.595Z,977.60
2018-02-13T02:43:14.400Z,977.60
2018-02-13T02:44:14.400Z,977.56
2018-02-13T02:45:14.230Z,977.57
2018-02-13T02:46:14.212Z,977.53
2018-02-13T02:47:14.059Z,977.52
2018-02-13T02:48:14.020Z,977.49
2018-02-13T02:49:13.888Z,977.48
2018-02-13T02:50:13.833Z,977.50
2018-02-13T02:51:13.712Z,977.48
2018-02-13T02:52:13.739Z,977.47
2018-02-13T02:53:13.540Z,977.46
2018-02-13T02:54:13.550Z,977.44
2018-02-13T02:55:13.367Z,977.51
2018-02-13T02:56:13.354Z,977.48
2018-02-13T02:57:13.194Z,977.48
2018-02-13T02:58:13.168Z,977.46
2018-02-13T02:59:13.023Z,977.52
2018-02-13T03:00:12.972Z,977.52
2018-02-13T03:01:12.848Z,977.49
2018-02-13T03:02:12.782Z,977.49
2018-02-13T03:03:12.680Z,977.52
2018-02-13T03:04:12.692Z,977.51
2018-02-13T03:05:12.501Z,977.49
2018-02-13T03:06:12.500Z,977.48
2018-02-13T03:07:12.329Z,977.48
2018-02-13T03:08:12.308Z,977.49
2018-02-13T03:09:12.157Z,977.50
2018-02-13T03:10:12.116Z,977.51
2018-02-13T03:11:11.996Z,977.48
2018-02-13T03:12:11.924Z,977.51
2018-02-13T03:13:11.813Z,977.52
2018-02-13T03:14:11.833Z,977.53
2018-02-13T03:15:11.669Z,977.50
2018-02-13T03:16:11.564Z,977.51
2018-02-13T03:17:11.470Z,977.50
2018-02-13T03:18:11.451Z,977.49
2018-02-13T03:19:11.297Z,977.47
2018-02-13T03:20:11.260Z,977.47
2018-02-13T03:21:11.124Z,977.46
2018-02-13T03:22:11.066Z,977.48
2018-02-13T03:23:10.947Z,977.50
2018-02-13T03:24:10.981Z,977.42
2018-02-13T03:25:10.779Z,977.40
2018-02-13T03:26:10.788Z,977.43
2018-02-13T03:27:10.604Z,977.42
2018-02-13T03:28:10.598Z,977.40
2018-02-13T03:29:10.434Z,977.38
2018-02-13T03:30:10.405Z,977.39
2018-02-13T03:31:10.268Z,977.42
2018-02-13T03:32:10.211Z,977.42
2018-02-13T03:33:10.090Z,977.40
2018-02-13T03:34:10.020Z,977.41
2018-02-13T03:35:09.919Z,977.39
2018-02-13T03:36:09.935Z,977.39
2018-02-13T03:37:09.743Z,977.38
2018-02-13T03:38:09.739Z,977.41
2018-02-13T03:39:09.569Z,977.41
2018-02-13T03:40:09.544Z,977.37
2018-02-13T03:41:09.395Z,977.35
2018-02-13T03:42:09.353Z,977.36
2018-02-13T03:43:09.221Z,977.35
2018-02-13T03:44:09.166Z,977.32
2018-02-13T03:45:09.048Z,977.35
2018-02-13T03:46:09.999Z,977.30
2018-02-13T03:47:08.882Z,977.32
2018-02-13T03:48:14.415Z,977.34
2018-02-13T03:49:08.708Z,977.33
2018-02-13T03:50:08.695Z,977.33
2018-02-13T03:51:08.531Z,977.35
2018-02-13T03:52:08.506Z,977.32
2018-02-13T03:53:08.361Z,977.36
2018-02-13T03:54:08.311Z,977.34
2018-02-13T03:55:08.184Z,977.36
2018-02-13T03:56:08.120Z,977.33
2018-02-13T03:57:08.015Z,977.31
2018-02-13T03:58:08.034Z,977.34
2018-02-13T03:59:07.840Z,977.34
2018-02-13T04:00:07.837Z,977.33
2018-02-13T04:01:07.666Z,977.36
2018-02-13T04:02:07.644Z,977.37
2018-02-13T04:03:07.495Z,977.36
2018-02-13T04:04:07.456Z,977.40
2018-02-13T04:05:07.324Z,977.35
2018-02-13T04:06:07.261Z,977.36
2018-02-13T04:07:07.153Z,977.39
2018-02-13T04:08:07.174Z,977.38
2018-02-13T04:09:06.976Z,977.35
2018-02-13T04:10:06.980Z,977.42
2018-02-13T04:11:06.802Z,977.45
2018-02-13T04:12:06.791Z,977.44
2018-02-13T04:13:06.631Z,977.38
2018-02-13T04:14:06.594Z,977.39
2018-02-13T04:15:06.462Z,977.41
2018-02-13T04:16:06.414Z,977.40
2018-02-13T04:17:06.285Z,977.43
2018-02-13T04:18:06.315Z,977.43
2018-02-13T04:19:06.113Z,977.42
2018-02-13T04:20:06.122Z,977.40
2018-02-13T04:21:05.939Z,977.43
2018-02-13T04:22:05.933Z,977.45
2018-02-13T04:23:05.767Z,977.41
2018-02-13T04:24:05.743Z,977.46
2018-02-13T04:25:05.594Z,977.43
2018-02-13T04:26:05.547Z,977.42
2018-02-13T04:27:05.422Z,977.41
2018-02-13T04:28:05.359Z,977.39
2018-02-13T04:29:05.248Z,977.35
2018-02-13T04:30:05.266Z,977.40
2018-02-13T04:31:05.088Z,977.36
2018-02-13T04:32:05.077Z,977.39
2018-02-13T04:33:04.903Z,977.39
2018-02-13T04:34:04.884Z,977.43
2018-02-13T04:35:04.734Z,977.41
2018-02-13T04:36:04.692Z,977.40
2018-02-13T04:37:04.557Z,977.41
2018-02-13T04:38:04.501Z,977.39
2018-02-13T04:39:04.388Z,977.42
2018-02-13T04:40:04.411Z,977.41
2018-02-13T04:41:04.213Z,977.42
2018-02-13T04:42:04.220Z,977.48
2018-02-13T04:43:04.040Z,977.42
2018-02-13T04:44:04.032Z,977.47
2018-02-13T04:45:03.870Z,977.47
2018-02-13T04:46:03.836Z,977.41
2018-02-13T04:47:03.700Z,977.41
2018-02-13T04:48:03.643Z,977.44
2018-02-13T04:49:03.526Z,977.42
2018-02-13T04:50:03.452Z,977.44
2018-02-13T04:51:03.349Z,977.37
2018-02-13T04:52:03.365Z,977.38
2018-02-13T04:53:03.176Z,977.36
2018-02-13T04:54:03.169Z,977.34
2018-02-13T04:55:03.005Z,977.33
2018-02-13T04:56:02.987Z,977.31
2018-02-13T04:57:02.830Z,977.30
2018-02-13T04:58:02.787Z,977.25
2018-02-13T04:59:02.659Z,977.25
2018-02-13T05:00:03.621Z,977.25
2018-02-13T05:01:02.489Z,977.30
2018-02-13T05:02:02.510Z,977.26
2018-02-13T05:03:02.316Z,977.26
2018-02-13T05:04:02.323Z,977.24
2018-02-13T05:05:02.142Z,977.21
2018-02-13T05:06:02.123Z,977.23
2018-02-13T05:07:01.977Z,977.26
2018-02-13T05:08:01.935Z,977.27
2018-02-13T05:09:01.799Z,977.25
2018-02-13T05:10:01.741Z,977.24
2018-02-13T05:11:01.627Z,977.22
2018-02-13T05:12:01.720Z,977.22
2018-02-13T05:13:01.453Z,977.23
2018-02-13T05:14:01.461Z,977.21
2018-02-13T05:15:01.278Z,977.21
2018-02-13T05:16:01.268Z,977.23
2018-02-13T05:17:01.112Z,977.23
2018-02-13T05:18:01.081Z,977.21
2018-02-13T05:19:00.937Z,977.24
2018-02-13T05:20:00.884Z,977.25
2018-02-13T05:21:00.762Z,977.22
2018-02-13T05:22:01.718Z,977.28
2018-02-13T05:23:00.593Z,977.23
2018-02-13T05:24:00.609Z,977.22
2018-02-13T05:25:00.418Z,977.28
2018-02-13T05:26:00.412Z,977.28
2018-02-13T05:27:00.245Z,977.26
2018-02-13T05:28:00.217Z,977.27
2018-02-13T05:29:00.070Z,977.30
2018-02-13T05:30:00.026Z,977.29
2018-02-13T05:30:59.902Z,977.32
2018-02-13T05:31:59.837Z,977.31
2018-02-13T05:32:59.734Z,977.34
2018-02-13T05:33:59.751Z,977.33
2018-02-13T05:34:59.554Z,977.34
2018-02-13T05:35:59.557Z,977.32
2018-02-13T05:36:59.446Z,977.34
2018-02-13T05:37:59.363Z,977.32
2018-02-13T05:38:59.211Z,977.35
2018-02-13T05:39:59.172Z,977.31
2018-02-13T05:40:59.036Z,977.34
2018-02-13T05:41:58.980Z,977.31
2018-02-13T05:42:58.866Z,977.30
2018-02-13T05:43:58.896Z,977.33
2018-02-13T05:44:58.694Z,977.32
2018-02-13T05:45:58.698Z,977.36
2018-02-13T05:46:58.519Z,977.35
2018-02-13T05:47:58.508Z,977.31
2018-02-13T05:48:58.355Z,977.35
2018-02-13T05:49:58.315Z,977.33
2018-02-13T05:50:58.182Z,977.33
2018-02-13T05:51:58.125Z,977.35
2018-02-13T05:52:58.005Z,977.36
2018-02-13T05:53:57.934Z,977.34
2018-02-13T05:54:57.828Z,977.34
2018-02-13T05:55:57.845Z,977.35
2018-02-13T05:56:57.656Z,977.33
2018-02-13T05:57:57.653Z,977.33
2018-02-13T05:58:57.487Z,977.31
2018-02-13T05:59:57.463Z,977.32
2018-02-13T06:00:57.310Z,977.36
2018-02-13T06:01:57.273Z,977.33
2018-02-13T06:02:57.139Z,977.34
2018-02-13T06:03:57.077Z,977.30
2018-02-13T06:04:56.970Z,977.31
2018-02-13T06:05:56.992Z,977.32
2018-02-13T06:06:56.815Z,977.34
2018-02-13T06:07:56.797Z,977.34
2018-02-13T06:08:56.623Z,977.35
2018-02-13T06:09:56.605Z,977.39
2018-02-13T06:10:56.449Z,977.38
2018-02-13T06:11:56.412Z,977.40
2018-02-13T06:12:56.279Z,977.41
2018-02-13T06:13:56.221Z,977.41
2018-02-13T06:14:56.103Z,977.37
2018-02-13T06:15:56.130Z,977.40
2018-02-13T06:16:55.932Z,977.42
2018-02-13T06:17:55.942Z,977.41
2018-02-13T06:18:55.759Z,977.38
2018-02-13T06:19:55.748Z,977.42
2018-02-13T06:20:55.587Z,977.36
2018-02-13T06:21:55.561Z,977.38
2018-02-13T06:22:55.415Z,977.37
2018-02-13T06:23:55.364Z,977.41
2018-02-13T06:24:55.240Z,977.39
2018-02-13T06:25:55.280Z,977.36
2018-02-13T06:26:55.072Z,977.37
2018-02-13T06:27:55.085Z,977.41
2018-02-13T06:28:54.898Z,977.39
2018-02-13T06:29:54.893Z,977.39
2018-02-13T06:30:54.728Z,977.40
2018-02-13T06:31:54.700Z,977.41
2018-02-13T06:32:54.554Z,977.39
2018-02-13T06:33:54.513Z,977.41
2018-02-13T06:34:54.391Z,977.43
2018-02-13T06:35:54.315Z,977.44
2018-02-13T06:36:54.210Z,977.43
2018-02-13T06:37:54.246Z,977.43
2018-02-13T06:38:54.040Z,977.40
2018-02-13T06:39:54.038Z,977.44
2018-02-13T06:40:53.862Z,977.45
2018-02-13T06:41:53.845Z,977.49
2018-02-13T06:42:53.694Z,977.51
2018-02-13T06:43:53.654Z,977.47
2018-02-13T06:44:53.522Z,977.46
2018-02-13T06:45:53.459Z,977.48
2018-02-13T06:46:53.351Z,977.46
2018-02-13T06:47:53.370Z,977.46
2018-02-13T06:48:53.178Z,977.50
2018-02-13T06:49:53.182Z,977.45
2018-02-13T06:50:53.009Z,977.47
2018-02-13T06:51:52.990Z,977.46
2018-02-13T06:52:52.836Z,977.47
2018-02-13T06:53:52.801Z,977.49
2018-02-13T06:54:52.664Z,977.47
2018-02-13T06:55:52.606Z,977.48
2018-02-13T06:56:52.491Z,977.46
2018-02-13T06:57:52.408Z,977.43
2018-02-13T06:58:52.486Z,977.45
2018-02-13T06:59:52.233Z,977.43
2018-02-13T07:00:52.299Z,977.43
2018-02-13T07:01:52.063Z,977.45
2018-02-13T07:02:52.109Z,977.43
2018-02-13T07:03:51.889Z,977.45
2018-02-13T07:04:51.918Z,977.44
2018-02-13T07:05:51.720Z,977.41
2018-02-13T07:06:51.727Z,977.44
2018-02-13T07:07:51.549Z,977.48
2018-02-13T07:08:51.639Z,977.47
2018-02-13T07:09:51.379Z,977.46
2018-02-13T07:10:51.443Z,977.44
2018-02-13T07:11:51.206Z,977.44
2018-02-13T07:12:51.254Z,977.44
2018-02-13T07:13:51.039Z,977.44
2018-02-13T07:14:51.060Z,977.42
2018-02-13T07:15:50.864Z,977.42
2018-02-13T07:16:50.873Z,977.42
2018-02-13T07:17:50.699Z,977.42
2018-02-13T07:18:50.785Z,977.44
2018-02-13T07:19:50.521Z,977.44
2018-02-13T07:20:50.592Z,977.43
2018-02-13T07:21:50.369Z,977.42
2018-02-13T07:22:50.401Z,977.40
2018-02-13T07:23:50.181Z,977.42
2018-02-13T07:24:50.210Z,977.44
2018-02-13T07:25:50.007Z,977.42
2018-02-13T07:26:50.021Z,977.42
2018-02-13T07:27:49.841Z,977.42
2018-02-13T07:28:49.832Z,977.43
2018-02-13T07:29:49.666Z,977.42
2018-02-13T07:30:49.741Z,977.44
2018-02-13T07:31:49.494Z,977.48
2018-02-13T07:32:49.552Z,977.44
2018-02-13T07:33:49.330Z,977.44
2018-02-13T07:34:49.361Z,977.46
2018-02-13T07:35:49.157Z,977.47
2018-02-13T07:36:49.270Z,977.45
2018-02-13T07:37:48.989Z,977.44
2018-02-13T07:38:49.079Z,977.44
2018-02-13T07:39:48.818Z,977.46
2018-02-13T07:40:48.893Z,977.44
2018-02-13T07:41:48.644Z,977.44
2018-02-13T07:42:48.610Z,977.46
2018-02-13T07:43:48.473Z,977.45
2018-02-13T07:44:48.510Z,977.45
2018-02-13T07:45:48.313Z,977.45
2018-02-13T07:46:48.436Z,977.47
2018-02-13T07:47:48.131Z,977.45
2018-02-13T07:48:48.228Z,977.45
2018-02-13T07:49:47.965Z,977.41
2018-02-13T07:50:48.037Z,977.42
2018-02-13T07:51:47.792Z,977.41
2018-02-13T07:52:47.845Z,977.42
2018-02-13T07:53:47.619Z,977.44
2018-02-13T07:54:47.655Z,977.41
2018-02-13T07:55:47.454Z,977.41
2018-02-13T07:56:47.567Z,977.42
2018-02-13T07:57:47.282Z,977.40
2018-02-13T07:58:47.375Z,977.38
2018-02-13T07:59:47.110Z,977.40
2018-02-13T08:00:47.187Z,977.40
2018-02-13T08:01:46.940Z,977.42
2018-02-13T08:02:46.997Z,977.39
2018-02-13T08:03:46.768Z,977.44
2018-02-13T08:04:46.804Z,977.47
2018-02-13T08:05:46.598Z,977.42
2018-02-13T08:06:46.724Z,977.37
2018-02-13T08:07:46.440Z,977.38
2018-02-13T08:08:46.427Z,977.38
2018-02-13T08:09:46.262Z,977.37
2018-02-13T08:10:46.334Z,977.33
2018-02-13T08:11:46.089Z,977.36
2018-02-13T08:12:46.151Z,977.35
2018-02-13T08:13:45.924Z,977.34
2018-02-13T08:14:45.955Z,977.40
2018-02-13T08:15:45.750Z,977.33
2018-02-13T08:16:45.761Z,977.38
2018-02-13T08:17:45.582Z,977.36
2018-02-13T08:18:45.572Z,977.35
2018-02-13T08:19:45.409Z,977.35
2018-02-13T08:20:45.381Z,977.35
2018-02-13T08:21:45.252Z,977.32
2018-02-13T08:22:45.186Z,977.32
2018-02-13T08:23:45.068Z,977.27
2018-02-13T08:24:44.994Z,977.27
2018-02-13T08:25:45.105Z,977.27
2018-02-13T08:26:44.823Z,977.25
2018-02-13T08:27:49.522Z,977.28
2018-02-13T08:28:44.656Z,977.27
2018-02-13T08:29:46.776Z,977.26
2018-02-13T08:30:44.487Z,977.25
2018-02-13T08:31:46.479Z,977.28
2018-02-13T08:32:44.318Z,977.26
2018-02-13T08:33:44.443Z,977.26
2018-02-13T08:34:44.150Z,977.21
2018-02-13T08:35:44.253Z,977.25
2018-02-13T08:36:43.979Z,977.22
2018-02-13T08:37:44.064Z,977.25
2018-02-13T08:38:43.809Z,977.23
2018-02-13T08:39:43.918Z,977.24
2018-02-13T08:40:43.640Z,977.20
2018-02-13T08:41:43.780Z,977.19
2018-02-13T08:42:43.476Z,977.19
2018-02-13T08:43:43.588Z,977.20
2018-02-13T08:44:43.309Z,977.20
2018-02-13T08:45:43.400Z,977.16
2018-02-13T08:46:43.147Z,977.16
2018-02-13T08:47:43.211Z,977.19
2018-02-13T08:48:42.971Z,977.18
2018-02-13T08:49:43.119Z,977.13
2018-02-13T08:50:42.808Z,977.15
2018-02-13T08:51:42.823Z,977.14
2018-02-13T08:52:42.644Z,977.16
2018-02-13T08:53:42.631Z,977.11
2018-02-13T08:54:42.483Z,977.16
2018-02-13T08:55:42.469Z,977.10
2018-02-13T08:56:42.312Z,977.10
2018-02-13T08:57:42.458Z,977.11
2018-02-13T08:58:42.149Z,977.11
2018-02-13T08:59:42.268Z,977.13
2018-02-13T09:00:41.979Z,977.12
2018-02-13T09:01:42.074Z,977.11
2018-02-13T09:02:41.819Z,977.14
2018-02-13T09:03:41.886Z,977.12
2018-02-13T09:04:41.644Z,977.08
2018-02-13T09:05:41.694Z,977.08
2018-02-13T09:06:41.481Z,977.09
2018-02-13T09:07:41.507Z,977.08
2018-02-13T09:08:41.311Z,977.09
2018-02-13T09:09:41.314Z,977.10
2018-02-13T09:10:41.146Z,977.07
2018-02-13T09:11:41.117Z,977.05
2018-02-13T09:12:40.975Z,977.06
2018-02-13T09:13:40.933Z,977.07
2018-02-13T09:14:40.839Z,977.07
2018-02-13T09:15:40.845Z,977.08
2018-02-13T09:16:40.643Z,977.05
2018-02-13T09:17:40.652Z,977.02
2018-02-13T09:18:40.478Z,977.05
2018-02-13T09:19:40.464Z,977.03
2018-02-13T09:20:40.310Z,977.03
2018-02-13T09:21:40.269Z,977.01
2018-02-13T09:22:40.142Z,977.00
2018-02-13T09:23:40.186Z,977.02
2018-02-13T09:24:40.831Z,977.02
2018-02-13T09:25:39.991Z,976.94
2018-02-13T09:26:39.808Z,976.91
2018-02-13T09:27:39.798Z,976.91
2018-02-13T09:28:39.640Z,976.90
2018-02-13T09:29:39.557Z,976.91
2018-02-13T09:30:39.512Z,976.88
2018-02-13T09:31:39.393Z,976.90
2018-02-13T09:32:39.421Z,976.91
2018-02-13T09:33:39.228Z,976.89
2018-02-13T09:34:39.233Z,976.86
2018-02-13T09:35:39.061Z,976.89
2018-02-13T09:36:39.042Z,976.86
2018-02-13T09:37:38.898Z,976.89
2018-02-13T09:38:38.953Z,976.87
2018-02-13T09:39:38.729Z,976.89
2018-02-13T09:40:38.763Z,976.87
2018-02-13T09:41:38.565Z,976.88
2018-02-13T09:42:38.576Z,976.86
2018-02-13T09:43:38.400Z,976.87
2018-02-13T09:44:38.380Z,976.88
2018-02-13T09:45:38.233Z,976.85
2018-02-13T09:46:38.295Z,976.86
2018-02-13T09:47:38.070Z,976.86
2018-02-13T09:48:38.102Z,976.84
2018-02-13T09:49:37.906Z,976.86
2018-02-13T09:50:37.912Z,976.86
2018-02-13T09:51:37.741Z,976.87
2018-02-13T09:52:37.720Z,976.85
2018-02-13T09:53:37.578Z,976.85
2018-02-13T09:54:37.631Z,976.84
2018-02-13T09:55:37.415Z,976.83
2018-02-13T09:56:37.446Z,976.84
2018-02-13T09:57:37.247Z,976.80
2018-02-13T09:58:37.250Z,976.84
2018-02-13T09:59:37.082Z,976.85
2018-02-13T10:00:37.059Z,976.77
2018-02-13T10:01:36.917Z,976.78
2018-02-13T10:02:36.966Z,976.75
2018-02-13T10:03:36.757Z,976.76
2018-02-13T10:04:36.777Z,976.74
2018-02-13T10:05:36.595Z,976.75
2018-02-13T10:06:36.646Z,976.73
2018-02-13T10:07:36.427Z,976.74
2018-02-13T10:08:36.494Z,976.73
2018-02-13T10:09:36.265Z,976.72
2018-02-13T10:10:36.274Z,976.74
2018-02-13T10:11:36.104Z,976.75
2018-02-13T10:12:36.112Z,976.71
2018-02-13T10:13:35.939Z,976.67
2018-02-13T10:14:35.927Z,976.69
2018-02-13T10:15:35.775Z,976.67
2018-02-13T10:16:35.837Z,976.69
2018-02-13T10:17:35.611Z,976.69
2018-02-13T10:18:35.646Z,976.67
2018-02-13T10:19:35.447Z,976.67
2018-02-13T10:20:35.454Z,976.67
2018-02-13T10:21:35.289Z,976.64
2018-02-13T10:22:35.267Z,976.64
2018-02-13T10:23:35.126Z,976.63
2018-02-13T10:24:35.178Z,976.66
2018-02-13T10:25:34.960Z,976.59
2018-02-13T10:26:34.978Z,976.56
2018-02-13T10:27:34.804Z,976.61
2018-02-13T10:28:34.793Z,976.55
2018-02-13T10:29:34.636Z,976.53
2018-02-13T10:30:34.602Z,976.50
2018-02-13T10:31:34.472Z,976.51
2018-02-13T10:32:34.514Z,976.50
2018-02-13T10:33:34.312Z,976.48
2018-02-13T10:34:34.320Z,976.47
2018-02-13T10:35:34.146Z,976.46
2018-02-13T10:36:34.137Z,976.45
2018-02-13T10:37:33.984Z,976.47
2018-02-13T10:38:34.084Z,976.46
2018-02-13T10:39:33.821Z,976.44
2018-02-13T10:40:33.855Z,976.44
2018-02-13T10:41:33.664Z,976.44
2018-02-13T10:42:33.668Z,976.40
2018-02-13T10:43:33.499Z,976.42
2018-02-13T10:44:33.575Z,976.38
2018-02-13T10:45:33.338Z,976.33
2018-02-13T10:46:33.390Z,976.34
2018-02-13T10:47:33.180Z,976.29
2018-02-13T10:48:33.190Z,976.31
2018-02-13T10:49:33.011Z,976.29
2018-02-13T10:50:33.000Z,976.26
2018-02-13T10:51:32.848Z,976.25
2018-02-13T10:52:32.913Z,976.25
2018-02-13T10:53:32.683Z,976.18
2018-02-13T10:54:32.724Z,976.19
2018-02-13T10:55:32.521Z,976.20
2018-02-13T10:56:32.529Z,976.17
2018-02-13T10:57:32.355Z,976.15
2018-02-13T10:58:32.441Z,976.15
2018-02-13T10:59:32.193Z,976.10
2018-02-13T11:00:32.255Z,976.09
2018-02-13T11:01:32.030Z,976.10
2018-02-13T11:02:32.057Z,976.09
2018-02-13T11:03:31.866Z,976.07
2018-02-13T11:04:31.871Z,976.04
2018-02-13T11:05:31.698Z,976.05
2018-02-13T11:06:31.783Z,975.99
2018-02-13T11:07:31.537Z,975.99
2018-02-13T11:08:31.539Z,975.97
2018-02-13T11:09:31.374Z,975.96
2018-02-13T11:10:31.402Z,975.95
2018-02-13T11:11:31.213Z,975.98
2018-02-13T11:12:31.207Z,975.96
2018-02-13T11:13:31.049Z,975.97
2018-02-13T11:14:31.118Z,975.96
2018-02-13T11:15:30.882Z,975.93
2018-02-13T11:16:30.927Z,975.94
2018-02-13T11:17:30.717Z,975.89
2018-02-13T11:18:30.736Z,975.89
2018-02-13T11:19:30.550Z,975.86
2018-02-13T11:20:30.545Z,975.86
2018-02-13T11:21:30.388Z,975.85
2018-02-13T11:22:30.461Z,975.84
2018-02-13T11:23:30.223Z,975.80
2018-02-13T11:24:30.266Z,975.78
2018-02-13T11:25:30.063Z,975.82
2018-02-13T11:26:30.075Z,975.78
2018-02-13T11:27:29.892Z,975.80
2018-02-13T11:28:30.910Z,975.79
2018-02-13T11:29:29.736Z,975.80
2018-02-13T11:30:29.791Z,975.78
2018-02-13T11:31:29.558Z,975.74
2018-02-13T11:32:29.600Z,975.76
2018-02-13T11:33:29.395Z,975.74
2018-02-13T11:34:29.412Z,975.72
2018-02-13T11:35:29.235Z,975.68
2018-02-13T11:36:29.324Z,975.65
2018-02-13T11:37:29.066Z,975.66
2018-02-13T11:38:29.131Z,975.62
2018-02-13T11:39:28.900Z,975.60
2018-02-13T11:40:28.940Z,975.60
2018-02-13T11:41:28.737Z,975.57
2018-02-13T11:42:28.752Z,975.53
2018-02-13T11:43:28.562Z,975.55
2018-02-13T11:44:28.661Z,975.52
2018-02-13T11:45:28.400Z,975.49
2018-02-13T11:46:28.470Z,975.48
2018-02-13T11:47:28.232Z,975.46
2018-02-13T11:48:28.280Z,975.48
2018-02-13T11:49:28.071Z,975.45
2018-02-13T11:50:28.135Z,975.46
2018-02-13T11:51:27.903Z,975.45
2018-02-13T11:52:28.002Z,975.43
2018-02-13T11:53:27.737Z,975.44
2018-02-13T11:54:27.705Z,975.38
2018-02-13T11:55:27.569Z,975.39
2018-02-13T11:56:27.622Z,975.36
2018-02-13T11:57:27.405Z,975.35
2018-02-13T11:58:27.426Z,975.31
2018-02-13T11:59:27.233Z,975.34
2018-02-13T12:00:27.342Z,975.33
2018-02-13T12:01:27.070Z,975.29
2018-02-13T12:02:27.150Z,975.32
2018-02-13T12:03:26.904Z,975.25
2018-02-13T12:04:26.958Z,975.23
2018-02-13T12:05:26.737Z,975.20
2018-02-13T12:06:26.766Z,975.19
2018-02-13T12:07:26.570Z,975.21
2018-02-13T12:08:26.604Z,975.17
2018-02-13T12:09:26.405Z,975.15
2018-02-13T12:10:26.486Z,975.11
2018-02-13T12:11:26.238Z,975.11
2018-02-13T12:12:26.303Z,975.12
2018-02-13T12:13:26.073Z,975.12
2018-02-13T12:14:26.104Z,975.12
2018-02-13T12:15:25.905Z,975.13
2018-02-13T12:16:26.018Z,975.09
2018-02-13T12:17:25.742Z,975.04
2018-02-13T12:18:25.827Z,975.05
2018-02-13T12:19:25.572Z,975.05
2018-02-13T12:20:25.633Z,974.99
2018-02-13T12:21:25.407Z,974.96
2018-02-13T12:22:25.442Z,975.00
2018-02-13T12:23:25.241Z,974.99
2018-02-13T12:24:25.354Z,975.02
2018-02-13T12:25:25.080Z,974.99
2018-02-13T12:26:25.178Z,974.99
2018-02-13T12:27:24.919Z,974.95